Time;durP1;ratioP1;P1;durP2;ratioP2;P2;SDS_P1;SDS_P2;PMS_P1;PMS_P2;Temp;Humidity;BMP_temperature;BMP_pressure;BME280_temperature;BME280_humidity;BME280_pressure;Samples;Min_cycle;Max_cycle;Signal;HPM_P1;HPM_P2
2023/10/14 00:01:15;;;;;;;14.30;2.70;;;8.90;74.00;;;;;;6222440;28;20064;-80
2023/10/14 00:04:21;;;;;;;11.43;2.42;;;8.90;73.80;;;;;;6196920;28;20065;-81
2023/10/14 00:07:25;;;;;;;15.95;2.78;;;8.90;73.90;;;;;;6172653;28;20055;-81
2023/10/14 00:10:27;;;;;;;14.23;2.50;;;8.90;75.00;;;;;;6220162;28;20054;-81
2023/10/14 00:13:32;;;;;;;15.60;2.70;;;8.80;74.60;;;;;;6203080;28;20574;-80
2023/10/14 00:16:41;;;;;;;7.40;1.98;;;8.90;74.30;;;;;;6196429;28;20058;-80
2023/10/14 00:19:49;;;;;;;11.88;2.50;;;8.80;73.80;;;;;;6172364;28;20062;-80
2023/10/14 00:22:51;;;;;;;12.38;2.72;;;8.80;74.50;;;;;;6173335;28;20513;-80
2023/10/14 00:25:54;;;;;;;15.48;2.63;;;8.80;74.60;;;;;;6236181;28;20402;-80
2023/10/14 00:32:16;;;;;;;14.15;2.75;;;8.70;74.60;;;;;;6173357;28;20059;-80
2023/10/14 00:35:19;;;;;;;17.15;2.42;;;8.70;74.90;;;;;;6219931;28;20058;-80
2023/10/14 00:38:23;;;;;;;13.05;2.33;;;8.70;74.80;;;;;;6197741;28;20061;-80
2023/10/14 00:41:28;;;;;;;12.00;2.50;;;8.60;73.80;;;;;;6220068;28;20068;-80
2023/10/14 00:44:29;;;;;;;10.43;1.73;;;8.60;72.30;;;;;;6192855;28;20101;-80
2023/10/14 00:47:31;;;;;;;10.88;2.40;;;8.70;72.50;;;;;;6219339;28;20058;-80
2023/10/14 00:50:33;;;;;;;12.30;2.28;;;8.70;72.30;;;;;;6195822;28;20050;-81
2023/10/14 00:53:37;;;;;;;10.45;1.85;;;8.70;71.20;;;;;;6219320;28;20489;-80
2023/10/14 00:56:47;;;;;;;13.38;2.30;;;8.70;72.20;;;;;;6196934;28;20614;-80
2023/10/14 00:59:49;;;;;;;10.90;2.17;;;8.80;69.90;;;;;;6217643;28;20050;-80
2023/10/14 01:02:51;;;;;;;14.02;2.30;;;8.80;68.90;;;;;;6196640;28;20054;-80
2023/10/14 01:05:54;;;;;;;13.35;2.75;;;8.70;70.00;;;;;;6220324;28;20058;-80
2023/10/14 01:08:55;;;;;;;10.32;2.22;;;8.70;70.60;;;;;;6196763;28;20050;-80
2023/10/14 01:11:57;;;;;;;12.10;2.28;;;8.70;70.30;;;;;;6218536;28;20524;-81
2023/10/14 01:15:00;;;;;;;11.52;2.63;;;8.70;70.50;;;;;;6188427;28;20058;-81
2023/10/14 01:18:02;;;;;;;14.70;2.30;;;8.70;70.60;;;;;;6218932;28;20049;-80
2023/10/14 01:21:03;;;;;;;14.70;2.35;;;8.70;71.20;;;;;;6194916;28;20112;-81
2023/10/14 01:24:16;;;;;;;11.25;2.40;;;8.60;71.00;;;;;;6219800;28;20421;-80
2023/10/14 01:27:17;;;;;;;7.63;2.08;;;8.60;71.00;;;;;;6172312;28;20059;-80
2023/10/14 01:30:20;;;;;;;12.88;2.38;;;8.70;72.20;;;;;;6212472;28;20050;-80
2023/10/14 01:33:25;;;;;;;9.23;2.38;;;8.60;72.30;;;;;;6171513;28;20062;-80
2023/10/14 01:36:32;;;;;;;15.27;2.53;;;8.60;72.20;;;;;;6234790;28;20057;-80
2023/10/14 01:39:33;;;;;;;14.55;2.40;;;8.60;72.20;;;;;;6171752;28;20097;-80
2023/10/14 01:42:35;;;;;;;13.02;2.63;;;8.60;72.20;;;;;;6213540;28;20057;-79
2023/10/14 01:45:40;;;;;;;13.63;2.40;;;8.60;72.20;;;;;;6173098;28;20510;-80
2023/10/14 01:48:44;;;;;;;19.27;2.75;;;8.50;72.20;;;;;;6192840;28;20537;-80
2023/10/14 01:51:50;;;;;;;15.45;2.65;;;8.50;72.20;;;;;;6219461;28;20062;-80
2023/10/14 01:54:51;;;;;;;13.88;2.40;;;8.50;72.30;;;;;;6195626;28;20065;-80
2023/10/14 01:57:53;;;;;;;12.93;2.53;;;8.50;72.50;;;;;;6211291;28;20320;-80
2023/10/14 02:01:04;;;;;;;12.38;2.47;;;8.50;72.60;;;;;;6195773;28;20633;-80
2023/10/14 02:04:07;;;;;;;15.38;2.90;;;8.50;73.30;;;;;;6171114;28;20517;-80
2023/10/14 02:07:18;;;;;;;10.68;2.40;;;8.40;73.50;;;;;;6218454;28;20065;-80
2023/10/14 02:10:20;;;;;;;10.02;2.10;;;8.40;73.90;;;;;;6186086;28;20050;-80
2023/10/14 02:13:22;;;;;;;9.98;1.88;;;8.30;74.90;;;;;;6203892;28;20141;-80
2023/10/14 02:16:32;;;;;;;11.30;2.22;;;8.30;74.40;;;;;;6218930;28;20507;-80
2023/10/14 02:22:38;;;;;;;7.80;2.00;;;8.20;75.20;;;;;;6218666;28;20498;-80
2023/10/14 02:25:40;;;;;;;18.10;3.05;;;8.20;74.80;;;;;;6194689;28;20073;-79
2023/10/14 02:28:45;;;;;;;12.63;2.33;;;8.20;75.10;;;;;;6202093;28;20069;-80
2023/10/14 02:31:47;;;;;;;11.35;2.45;;;8.20;76.10;;;;;;6219277;28;20057;-80
2023/10/14 02:34:50;;;;;;;14.75;2.33;;;8.10;75.90;;;;;;6194905;28;20054;-80
2023/10/14 02:37:53;;;;;;;15.25;2.15;;;8.20;75.80;;;;;;6218792;28;20058;-79
2023/10/14 02:40:55;;;;;;;10.18;2.08;;;8.10;75.70;;;;;;6194800;28;20050;-80
2023/10/14 02:47:08;;;;;;;14.25;2.35;;;8.10;75.60;;;;;;6218586;28;20058;-80
2023/10/14 02:50:14;;;;;;;12.02;2.38;;;8.10;75.90;;;;;;6193730;28;20265;-80
2023/10/14 02:53:21;;;;;;;11.90;2.22;;;8.10;76.70;;;;;;6218688;28;20062;-80
2023/10/14 02:56:32;;;;;;;12.40;2.13;;;8.00;76.80;;;;;;6170703;28;20059;-80
2023/10/14 02:59:43;;;;;;;10.30;2.05;;;8.00;76.60;;;;;;6172532;28;20055;-80
2023/10/14 03:02:48;;;;;;;11.82;2.35;;;8.00;76.60;;;;;;6237668;28;20064;-80
2023/10/14 03:05:51;;;;;;;13.00;2.05;;;8.00;76.50;;;;;;6199248;28;20065;-79
2023/10/14 03:08:59;;;;;;;13.85;2.30;;;8.00;76.60;;;;;;6223237;28;20144;-79
2023/10/14 03:12:01;;;;;;;12.30;2.20;;;7.90;76.30;;;;;;6175006;28;20043;-80
2023/10/14 03:15:03;;;;;;;12.82;2.25;;;7.90;76.80;;;;;;6230306;28;20069;-79
2023/10/14 03:18:05;;;;;;;10.90;2.15;;;7.90;77.20;;;;;;6199181;28;20240;-80
2023/10/14 03:21:22;;;;;;;16.25;2.25;;;7.90;77.50;;;;;;6222697;28;20053;-79
2023/10/14 03:24:25;;;;;;;12.63;2.38;;;7.90;77.10;;;;;;6174531;28;20515;-79
2023/10/14 03:27:32;;;;;;;13.68;2.22;;;7.90;77.10;;;;;;6221922;28;20053;-79
2023/10/14 03:30:44;;;;;;;11.10;2.47;;;7.90;77.60;;;;;;6197581;28;20354;-79
2023/10/14 03:33:46;;;;;;;14.05;2.15;;;7.80;77.10;;;;;;6174720;28;20418;-79
2023/10/14 03:36:50;;;;;;;8.45;2.15;;;7.80;77.70;;;;;;6236911;28;20132;-80
2023/10/14 03:40:51;;;;;;;10.23;1.75;;;7.70;77.70;;;;;;6198667;28;20529;-79
2023/10/14 03:43:18;;;;;;;14.50;2.10;;;7.60;77.90;;;;;;6191285;22;20061;-77
2023/10/14 03:49:40;;;;;;;11.00;1.90;;;7.70;78.70;;;;;;6174484;28;20498;-80
2023/10/14 03:52:42;;;;;;;16.67;2.13;;;7.70;78.90;;;;;;6212569;28;20056;-80
2023/10/14 03:55:43;;;;;;;12.25;1.92;;;7.60;78.60;;;;;;6198117;28;20414;-80
2023/10/14 03:58:45;;;;;;;11.25;2.45;;;7.70;78.90;;;;;;6196779;28;20085;-80
2023/10/14 04:01:47;;;;;;;14.85;2.42;;;7.70;79.60;;;;;;6198100;28;20058;-80
2023/10/14 04:04:53;;;;;;;10.63;1.83;;;7.70;79.10;;;;;;6197989;28;20057;-80
2023/10/14 04:07:55;;;;;;;12.85;2.47;;;7.60;79.40;;;;;;6198182;28;20076;-81
2023/10/14 04:11:10;;;;;;;10.48;2.28;;;7.60;79.30;;;;;;6197430;28;20113;-80
2023/10/14 04:14:14;;;;;;;14.40;2.30;;;7.60;79.40;;;;;;6186779;28;20054;-79
2023/10/14 04:17:19;;;;;;;12.55;2.53;;;7.60;79.50;;;;;;6198026;28;20141;-79
2023/10/14 04:20:32;;;;;;;12.02;2.10;;;7.70;79.50;;;;;;6173705;28;20141;-79
2023/10/14 04:23:38;;;;;;;11.90;2.10;;;7.70;79.40;;;;;;6173879;28;20059;-80
2023/10/14 04:26:41;;;;;;;11.07;2.22;;;7.60;79.50;;;;;;6173606;28;20065;-80
2023/10/14 04:29:51;;;;;;;10.80;1.83;;;7.60;79.40;;;;;;6194892;28;20054;-80
2023/10/14 04:36:08;;;;;;;13.60;2.53;;;7.60;79.50;;;;;;6197102;28;20577;-80
2023/10/14 04:39:16;;;;;;;11.40;2.20;;;7.60;79.10;;;;;;6173546;28;20091;-79
2023/10/14 04:45:19;;;;;;;7.88;2.08;;;7.60;79.20;;;;;;6194000;28;20055;-80
2023/10/14 04:48:28;;;;;;;12.30;2.55;;;7.60;79.40;;;;;;6195938;28;20054;-80
2023/10/14 04:51:45;;;;;;;12.43;2.27;;;7.60;79.50;;;;;;6171935;28;20059;-79
2023/10/14 04:54:52;;;;;;;11.50;2.53;;;7.60;79.30;;;;;;6211684;28;20054;-79
2023/10/14 04:58:15;;;;;;;17.45;2.50;;;7.70;79.10;;;;;;6174337;28;20151;-80
2023/10/14 05:01:24;;;;;;;10.25;1.88;;;7.70;78.80;;;;;;6197761;28;20050;-80
2023/10/14 05:04:30;;;;;;;9.70;1.90;;;7.60;78.90;;;;;;6187707;28;20141;-80
2023/10/14 05:07:35;;;;;;;14.15;2.50;;;7.70;78.90;;;;;;6173152;28;20414;-79
2023/10/14 05:10:41;;;;;;;12.65;2.50;;;7.60;78.80;;;;;;6196317;28;20058;-80
2023/10/14 05:13:44;;;;;;;12.80;2.50;;;7.60;79.00;;;;;;6193213;28;20054;-80
2023/10/14 05:16:57;;;;;;;14.50;2.72;;;7.60;78.70;;;;;;6196356;28;20047;-80
2023/10/14 05:19:59;;;;;;;11.40;2.20;;;7.60;78.50;;;;;;6196288;28;20077;-80
2023/10/14 05:23:01;;;;;;;14.02;2.28;;;7.60;78.40;;;;;;6195045;28;20442;-80
2023/10/14 05:26:06;;;;;;;13.63;2.30;;;7.50;78.40;;;;;;6196218;28;20061;-80
2023/10/14 05:29:16;;;;;;;14.90;2.75;;;7.50;78.80;;;;;;6184822;28;20058;-80
2023/10/14 05:32:23;;;;;;;13.43;2.40;;;7.50;79.00;;;;;;6186975;28;20066;-80
2023/10/14 05:35:25;;;;;;;11.88;2.22;;;7.40;79.20;;;;;;6196285;28;20052;-80
2023/10/14 05:38:27;;;;;;;9.60;1.77;;;7.50;79.30;;;;;;6194704;28;20054;-81
2023/10/14 05:41:28;;;;;;;12.57;2.30;;;7.50;79.20;;;;;;6195723;28;20057;-80
2023/10/14 05:44:30;;;;;;;14.20;2.38;;;7.40;79.20;;;;;;6191130;28;20069;-80
2023/10/14 05:47:32;;;;;;;12.48;2.20;;;7.50;79.10;;;;;;6195241;28;20421;-81
2023/10/14 05:50:35;;;;;;;13.50;2.63;;;7.40;79.00;;;;;;6195368;28;20133;-80
2023/10/14 05:53:36;;;;;;;13.40;2.40;;;7.40;79.30;;;;;;6195424;28;20418;-81
2023/10/14 05:56:39;;;;;;;10.68;2.15;;;7.30;79.20;;;;;;6195331;28;20081;-80
2023/10/14 05:59:43;;;;;;;8.43;1.80;;;7.30;79.30;;;;;;6193809;28;20529;-80
2023/10/14 06:02:45;;;;;;;10.73;2.30;;;7.30;79.50;;;;;;6195404;28;20149;-80
2023/10/14 06:05:47;;;;;;;15.13;2.28;;;7.30;80.00;;;;;;6194198;28;20050;-80
2023/10/14 06:08:49;;;;;;;17.30;2.60;;;7.30;80.00;;;;;;6195377;28;20062;-81
2023/10/14 06:11:53;;;;;;;10.30;1.98;;;7.40;80.00;;;;;;6195246;28;20050;-80
2023/10/14 06:14:54;;;;;;;10.63;1.95;;;7.30;79.30;;;;;;6192712;28;20054;-81
2023/10/14 06:17:57;;;;;;;17.45;2.80;;;7.30;79.90;;;;;;6195430;28;20057;-80
2023/10/14 06:20:59;;;;;;;11.00;2.08;;;7.30;80.20;;;;;;6195409;28;20430;-79
2023/10/14 06:24:04;;;;;;;13.82;2.30;;;7.30;80.20;;;;;;6194889;28;20136;-80
2023/10/14 06:27:09;;;;;;;13.50;2.25;;;7.40;80.40;;;;;;6195429;28;20058;-81
2023/10/14 06:30:18;;;;;;;12.40;2.20;;;7.40;80.10;;;;;;6190863;28;20054;-80
2023/10/14 06:33:26;;;;;;;11.55;2.15;;;7.40;79.80;;;;;;6185704;28;20570;-80
2023/10/14 06:36:27;;;;;;;12.50;2.42;;;7.40;80.30;;;;;;6195049;28;20051;-81
2023/10/14 06:39:40;;;;;;;13.40;2.10;;;7.40;80.20;;;;;;6193904;28;20058;-80
2023/10/14 06:42:48;;;;;;;11.07;2.22;;;7.40;79.70;;;;;;6171972;28;21214;-80
2023/10/14 06:45:51;;;;;;;12.68;2.00;;;7.50;79.70;;;;;;6215548;28;20066;-79
2023/10/14 06:48:55;;;;;;;13.02;2.20;;;7.50;79.50;;;;;;6194989;28;20413;-80
2023/10/14 06:51:57;;;;;;;11.13;2.10;;;7.60;79.50;;;;;;6193409;28;20069;-80
2023/10/14 06:55:00;;;;;;;12.02;2.20;;;7.60;79.50;;;;;;6193630;28;20161;-80
2023/10/14 06:58:01;;;;;;;12.90;2.00;;;7.70;79.30;;;;;;6192515;28;20399;-81
2023/10/14 07:01:03;;;;;;;9.40;1.90;;;7.70;79.10;;;;;;6194611;28;20058;-80
2023/10/14 07:04:05;;;;;;;10.93;2.00;;;7.80;79.00;;;;;;6169588;28;20102;-80
2023/10/14 07:07:09;;;;;;;12.38;2.80;;;7.70;78.00;;;;;;6194326;28;20123;-82
2023/10/14 07:10:14;;;;;;;11.43;2.42;;;7.80;77.50;;;;;;6194883;28;20082;-82
2023/10/14 07:13:17;;;;;;;11.20;2.13;;;7.80;77.40;;;;;;6193853;28;20504;-79
2023/10/14 07:16:18;;;;;;;7.78;1.75;;;7.90;77.00;;;;;;6194885;28;20579;-80
2023/10/14 07:19:20;;;;;;;13.43;2.22;;;7.90;76.70;;;;;;6194826;28;20492;-80
2023/10/14 07:22:22;;;;;;;9.27;1.80;;;8.00;76.50;;;;;;6193853;28;20798;-80
2023/10/14 07:25:24;;;;;;;14.25;2.20;;;8.00;75.50;;;;;;6193335;28;20054;-80
2023/10/14 07:28:26;;;;;;;14.75;2.22;;;8.10;75.50;;;;;;6190039;28;20129;-79
2023/10/14 07:31:30;;;;;;;10.60;2.30;;;8.20;74.80;;;;;;6192836;28;20136;-80
2023/10/14 07:34:32;;;;;;;9.80;1.90;;;8.30;74.40;;;;;;6194256;28;20054;-80
2023/10/14 07:37:34;;;;;;;11.18;1.45;;;8.40;74.80;;;;;;6193945;28;20050;-80
2023/10/14 07:40:35;;;;;;;7.63;1.63;;;8.80;71.70;;;;;;6194535;28;20050;-80
2023/10/14 07:43:37;;;;;;;6.47;1.70;;;9.50;66.40;;;;;;6195532;28;20128;-81
2023/10/14 07:46:38;;;;;;;8.65;1.38;;;10.20;65.10;;;;;;6220889;28;20148;-81
2023/10/14 07:49:42;;;;;;;6.82;1.15;;;10.90;51.00;;;;;;6198797;28;20577;-81
2023/10/14 07:52:43;;;;;;;7.85;1.50;;;11.40;57.10;;;;;;6198247;28;20058;-81
2023/10/14 07:55:47;;;;;;;7.25;1.48;;;11.90;43.20;;;;;;6197933;28;20054;-81
2023/10/14 07:58:49;;;;;;;7.50;1.30;;;12.30;34.00;;;;;;6196182;28;20132;-81
2023/10/14 08:01:50;;;;;;;8.02;1.38;;;12.50;32.50;;;;;;6198200;28;20417;-81
2023/10/14 08:04:53;;;;;;;8.80;1.58;;;12.90;24.50;;;;;;6198390;28;20065;-80
2023/10/14 08:07:55;;;;;;;8.20;1.40;;;13.20;30.70;;;;;;6196967;28;20108;-81
2023/10/14 08:10:57;;;;;;;8.30;1.75;;;13.60;17.00;;;;;;6199283;28;20047;-81
2023/10/14 08:13:59;;;;;;;6.22;1.30;;;13.80;22.50;;;;;;6197443;28;20054;-81
2023/10/14 08:17:01;;;;;;;9.52;1.77;;;14.00;16.30;;;;;;6199848;28;20061;-81
2023/10/14 08:20:12;;;;;;;4.90;1.42;;;14.20;11.20;;;;;;6198600;28;20081;-82
2023/10/14 08:23:14;;;;;;;7.53;1.70;;;14.50;7.00;;;;;;6173922;28;20146;-80
2023/10/14 08:26:16;;;;;;;5.50;1.52;;;14.70;9.80;;;;;;6196930;28;20054;-81
2023/10/14 08:29:20;;;;;;;6.60;1.38;;;14.50;1.00;;;;;;6194938;28;20061;-80
2023/10/14 08:32:23;;;;;;;7.20;1.45;;;14.80;4.90;;;;;;6197481;28;20465;-81
2023/10/14 08:35:29;;;;;;;7.82;1.77;;;15.20;6.60;;;;;;6197737;28;20061;-81
2023/10/14 08:38:32;;;;;;;6.55;1.52;;;15.10;1.00;;;;;;6197727;28;20062;-81
2023/10/14 08:41:36;;;;;;;9.25;2.03;;;15.40;1.00;;;;;;6197679;28;20050;-81
2023/10/14 08:44:38;;;;;;;7.45;1.67;;;16.00;1.00;;;;;;6192791;28;20490;-80
2023/10/14 08:47:40;;;;;;;5.70;1.58;;;16.10;1.00;;;;;;6197298;28;20508;-80
2023/10/14 08:50:42;;;;;;;8.10;1.60;;;16.50;1.00;;;;;;6197405;28;20528;-79
2023/10/14 08:53:43;;;;;;;8.13;1.73;;;16.60;1.00;;;;;;6197352;28;20050;-80
2023/10/14 08:56:45;;;;;;;5.95;1.60;;;16.70;1.00;;;;;;6195279;28;20054;-80
2023/10/14 08:59:47;;;;;;;7.07;1.60;;;16.70;1.00;;;;;;6196291;28;20058;-79
2023/10/14 09:02:53;;;;;;;9.90;1.88;;;16.80;1.00;;;;;;6196818;28;20054;-79
2023/10/14 09:05:55;;;;;;;5.80;1.63;;;17.00;1.00;;;;;;6196647;28;20054;-80
2023/10/14 09:08:57;;;;;;;6.72;1.48;;;17.20;1.00;;;;;;6197201;28;20065;-80
2023/10/14 09:11:58;;;;;;;8.20;1.85;;;17.60;1.00;;;;;;6196648;28;20518;-79
2023/10/14 09:15:00;;;;;;;7.38;1.60;;;17.60;1.00;;;;;;6193780;28;20062;-80
2023/10/14 09:18:01;;;;;;;11.85;4.97;;;17.80;1.00;;;;;;6195250;28;20058;-80
2023/10/14 09:21:05;;;;;;;6.20;1.50;;;17.60;1.00;;;;;;6196134;28;20069;-80
2023/10/14 09:24:08;;;;;;;6.45;1.52;;;17.80;1.00;;;;;;6196338;28;20067;-79
2023/10/14 09:27:11;;;;;;;6.40;1.45;;;18.10;1.00;;;;;;6196387;28;20521;-80
2023/10/14 09:30:18;;;;;;;5.78;1.60;;;18.30;1.00;;;;;;6192091;28;20050;-80
2023/10/14 09:33:19;;;;;;;7.28;1.20;;;18.30;1.00;;;;;;6171942;28;20138;-80
2023/10/14 09:36:22;;;;;;;6.35;1.60;;;18.10;1.00;;;;;;6195541;28;20065;-80
2023/10/14 09:39:24;;;;;;;8.85;1.63;;;18.50;1.00;;;;;;6196022;28;20054;-81
2023/10/14 09:42:26;;;;;;;8.23;2.05;;;18.60;1.00;;;;;;6194483;28;20137;-79
2023/10/14 09:45:28;;;;;;;4.65;1.23;;;18.90;1.00;;;;;;6224788;22;20355;-81
2023/10/14 09:48:30;;;;;;;5.68;1.27;;;19.00;1.00;;;;;;6219472;28;20068;-82
2023/10/14 09:51:31;;;;;;;4.95;1.40;;;19.20;1.00;;;;;;6220221;28;20050;-81
2023/10/14 09:54:33;;;;;;;6.03;1.63;;;19.40;1.00;;;;;;6219987;28;20054;-85
2023/10/14 09:57:38;;;;;;;8.13;1.63;;;19.30;1.00;;;;;;6218426;28;20061;-76
2023/10/14 10:00:40;;;;;;;5.90;1.50;;;18.90;1.00;;;;;;6218852;28;20053;-84
2023/10/14 10:03:44;;;;;;;7.68;1.60;;;18.90;1.00;;;;;;6194083;28;20062;-82
2023/10/14 10:06:48;;;;;;;8.32;1.58;;;18.60;1.00;;;;;;6219833;28;20057;-83
2023/10/14 10:09:52;;;;;;;7.22;1.55;;;18.70;1.00;;;;;;6218387;28;20068;-82
2023/10/14 10:12:55;;;;;;;4.45;1.40;;;18.90;1.00;;;;;;6214459;28;20496;-81
2023/10/14 10:15:58;;;;;;;3.85;1.15;;;18.90;1.00;;;;;;6217948;28;20487;-81
2023/10/14 10:19:01;;;;;;;8.98;1.25;;;19.00;1.00;;;;;;6209732;28;20057;-81
2023/10/14 10:22:03;;;;;;;6.72;2.13;;;19.40;1.00;;;;;;6233655;28;20065;-82
2023/10/14 10:25:05;;;;;;;6.13;1.45;;;19.80;1.00;;;;;;6217610;28;20196;-82
2023/10/14 10:28:07;;;;;;;5.95;1.30;;;19.30;1.00;;;;;;6213793;28;20058;-82
2023/10/14 10:31:12;;;;;;;8.77;1.67;;;18.70;1.00;;;;;;6217754;28;20108;-84
2023/10/14 10:34:13;;;;;;;6.43;1.30;;;17.70;1.00;;;;;;6217609;28;20058;-81
2023/10/14 10:37:15;;;;;;;6.90;1.50;;;17.60;1.00;;;;;;6217505;28;20060;-81
2023/10/14 10:40:17;;;;;;;6.75;1.80;;;18.10;1.00;;;;;;6217163;28;20057;-82
2023/10/14 10:43:19;;;;;;;4.40;1.17;;;19.20;1.00;;;;;;6213737;28;20049;-82
2023/10/14 10:46:21;;;;;;;5.25;1.15;;;19.10;1.00;;;;;;6218462;28;20046;-82
2023/10/14 10:49:23;;;;;;;5.63;1.20;;;19.10;1.00;;;;;;6217137;28;20468;-82
2023/10/14 10:52:25;;;;;;;6.82;1.38;;;19.80;1.00;;;;;;6220070;28;20054;-83
2023/10/14 10:55:30;;;;;;;5.20;1.27;;;19.50;1.00;;;;;;6219299;28;20085;-82
2023/10/14 10:58:32;;;;;;;5.32;1.10;;;18.70;1.00;;;;;;6214817;28;20057;-88
2023/10/14 11:01:34;;;;;;;6.13;1.25;;;19.30;1.00;;;;;;6218155;28;20134;-83
2023/10/14 11:04:35;;;;;;;7.15;1.50;;;19.50;1.00;;;;;;6219496;28;20076;-83
2023/10/14 11:07:38;;;;;;;4.60;1.23;;;18.90;1.00;;;;;;6219180;28;20513;-82
2023/10/14 11:10:42;;;;;;;5.40;1.15;;;17.90;1.00;;;;;;6218592;28;20465;-82
2023/10/14 11:13:46;;;;;;;6.30;1.27;;;17.70;1.00;;;;;;6212577;28;20057;-82
2023/10/14 11:16:47;;;;;;;8.48;1.00;;;17.90;1.00;;;;;;6219094;28;20474;-81
2023/10/14 11:19:49;;;;;;;5.03;1.10;;;17.10;1.00;;;;;;6219946;28;20421;-80
2023/10/14 11:22:55;;;;;;;5.10;1.50;;;16.30;1.00;;;;;;6223323;28;20050;-82
2023/10/14 11:25:57;;;;;;;5.72;1.20;;;16.50;1.00;;;;;;6199348;28;20097;-82
2023/10/14 11:28:59;;;;;;;5.10;1.15;;;17.80;1.00;;;;;;6215823;28;20421;-83
2023/10/14 11:32:02;;;;;;;3.13;0.90;;;17.70;1.00;;;;;;6223128;28;20132;-82
2023/10/14 11:35:05;;;;;;;6.97;1.20;;;16.90;1.00;;;;;;6223103;28;20060;-81
2023/10/14 11:38:07;;;;;;;7.00;1.17;;;16.60;1.00;;;;;;6222848;28;20144;-82
2023/10/14 11:41:10;;;;;;;7.15;1.25;;;16.60;1.00;;;;;;6222921;28;20049;-81
2023/10/14 11:44:17;;;;;;;3.38;0.90;;;16.40;1.00;;;;;;6227306;28;20050;-82
2023/10/14 11:47:19;;;;;;;3.55;1.10;;;16.30;1.00;;;;;;6199035;28;20059;-83
2023/10/14 11:50:20;;;;;;;3.75;1.08;;;17.70;1.00;;;;;;6221901;28;20188;-83
2023/10/14 11:53:22;;;;;;;4.75;1.10;;;18.70;1.00;;;;;;6222819;28;20410;-81
2023/10/14 11:56:24;;;;;;;4.78;0.90;;;19.80;1.00;;;;;;6222963;28;20054;-81
2023/10/14 11:59:26;;;;;;;3.30;1.00;;;19.70;1.00;;;;;;6220546;28;20054;-85
2023/10/14 12:02:27;;;;;;;5.18;1.23;;;18.80;1.00;;;;;;6226802;28;20081;-91
2023/10/14 12:05:29;;;;;;;5.18;1.20;;;17.70;1.00;;;;;;6222035;28;20053;-86
2023/10/14 12:08:32;;;;;;;8.60;1.10;;;16.90;1.00;;;;;;6222679;28;20053;-81
2023/10/14 12:11:41;;;;;;;5.45;1.00;;;16.30;1.00;;;;;;6221470;28;20409;-79
2023/10/14 12:14:43;;;;;;;5.60;1.20;;;15.90;1.00;;;;;;6216406;28;20050;-79
2023/10/14 12:17:45;;;;;;;5.13;1.20;;;16.30;1.00;;;;;;6221902;28;20049;-80
2023/10/14 12:20:48;;;;;;;5.35;0.77;;;17.40;1.00;;;;;;6221520;28;20054;-80
2023/10/14 12:23:51;;;;;;;3.50;1.25;;;18.00;1.00;;;;;;6221828;28;20050;-81
2023/10/14 12:26:53;;;;;;;2.35;0.90;;;18.10;1.00;;;;;;6221390;28;20525;-81
2023/10/14 12:29:57;;;;;;;2.88;0.95;;;19.10;1.00;;;;;;6219345;28;20065;-81
2023/10/14 12:33:04;;;;;;;3.63;1.10;;;20.10;1.00;;;;;;6220983;28;20093;-81
2023/10/14 12:36:10;;;;;;;4.50;0.98;;;20.70;1.00;;;;;;6197527;28;20057;-82
2023/10/14 12:39:33;;;;;;;3.95;0.90;;;20.70;1.00;;;;;;6220581;28;20100;-80
2023/10/14 12:42:54;;;;;;;4.00;1.02;;;18.80;1.00;;;;;;6197424;28;20050;-80
2023/10/14 12:46:09;;;;;;;3.70;0.80;;;17.30;1.00;;;;;;6218326;28;20065;-80
2023/10/14 12:49:11;;;;;;;4.70;0.88;;;16.10;1.00;;;;;;6214463;28;20057;-80
2023/10/14 12:52:13;;;;;;;4.07;0.90;;;15.10;1.00;;;;;;6235994;28;20140;-81
2023/10/14 12:55:17;;;;;;;4.68;1.00;;;14.50;1.00;;;;;;6223031;28;20085;-80
2023/10/14 12:58:19;;;;;;;3.45;1.00;;;14.20;1.00;;;;;;6213921;28;20045;-81
2023/10/14 13:01:20;;;;;;;7.60;1.20;;;14.00;1.00;;;;;;6220622;28;20515;-81
2023/10/14 13:04:22;;;;;;;3.67;1.00;;;13.80;1.00;;;;;;6221560;28;20056;-80
2023/10/14 13:07:24;;;;;;;6.90;1.27;;;14.90;1.00;;;;;;6219281;28;20058;-81
2023/10/14 13:10:28;;;;;;;3.38;0.80;;;16.40;1.00;;;;;;6218979;28;20132;-81
2023/10/14 13:13:30;;;;;;;4.43;1.05;;;17.20;1.00;;;;;;6216841;28;20516;-83
2023/10/14 13:16:32;;;;;;;5.50;1.30;;;17.80;1.00;;;;;;6220834;28;20413;-81
2023/10/14 13:19:37;;;;;;;3.97;1.00;;;18.00;1.00;;;;;;6220337;28;20066;-81
2023/10/14 13:22:39;;;;;;;6.20;1.30;;;18.40;1.00;;;;;;6220294;28;20060;-81
2023/10/14 13:25:41;;;;;;;3.60;1.10;;;18.60;1.00;;;;;;6220287;28;20058;-81
2023/10/14 13:28:45;;;;;;;5.30;1.20;;;19.00;1.00;;;;;;6217984;28;20049;-81
2023/10/14 13:31:49;;;;;;;4.35;1.00;;;19.40;1.00;;;;;;6219865;28;20057;-83
2023/10/14 13:34:53;;;;;;;4.40;1.25;;;19.80;1.00;;;;;;6220042;28;20085;-81
2023/10/14 13:37:55;;;;;;;3.95;1.20;;;18.70;1.00;;;;;;6220578;28;20054;-81
2023/10/14 13:40:59;;;;;;;5.63;1.23;;;17.50;1.00;;;;;;6218632;28;20061;-80
2023/10/14 13:44:01;;;;;;;3.63;1.10;;;16.80;1.00;;;;;;6214764;28;20119;-80
2023/10/14 13:47:04;;;;;;;4.13;0.90;;;16.40;1.00;;;;;;6219821;28;20514;-82
2023/10/14 13:50:07;;;;;;;5.00;1.13;;;15.80;1.00;;;;;;6219730;28;20049;-81
2023/10/14 13:53:09;;;;;;;4.68;1.55;;;15.30;1.00;;;;;;6219249;28;20422;-80
2023/10/14 13:56:11;;;;;;;8.40;1.30;;;15.00;1.00;;;;;;6222829;28;20513;-81
2023/10/14 13:59:12;;;;;;;4.88;1.23;;;14.70;1.00;;;;;;6215384;28;20061;-83
2023/10/14 14:02:14;;;;;;;3.83;0.90;;;14.80;1.00;;;;;;6219261;28;20053;-84
2023/10/14 14:05:18;;;;;;;4.78;1.52;;;16.00;1.00;;;;;;6220438;28;20452;-85
2023/10/14 14:08:25;;;;;;;5.35;1.65;;;16.80;1.00;;;;;;6220477;28;20447;-83
2023/10/14 14:11:29;;;;;;;6.15;1.10;;;17.40;1.00;;;;;;6194983;28;20531;-83
2023/10/14 14:14:34;;;;;;;3.53;1.10;;;17.90;1.00;;;;;;6215960;28;20058;-83
2023/10/14 14:17:36;;;;;;;3.97;1.00;;;18.30;1.00;;;;;;6195695;28;20060;-83
2023/10/14 14:20:38;;;;;;;5.00;0.90;;;18.50;1.00;;;;;;6218627;28;20147;-84
2023/10/14 14:23:40;;;;;;;7.38;1.10;;;18.00;1.00;;;;;;6219426;28;20060;-82
2023/10/14 14:26:42;;;;;;;4.70;1.05;;;17.20;1.00;;;;;;6219081;28;20049;-82
2023/10/14 14:29:45;;;;;;;6.88;1.10;;;16.30;1.00;;;;;;6217361;28;20064;-81
2023/10/14 14:32:46;;;;;;;3.97;1.17;;;16.00;1.00;;;;;;6219296;28;20053;-82
2023/10/14 14:35:48;;;;;;;2.85;0.82;;;15.70;1.00;;;;;;6218722;28;20093;-82
2023/10/14 14:38:51;;;;;;;5.13;1.00;;;15.60;1.00;;;;;;6218393;28;20196;-81
2023/10/14 14:42:00;;;;;;;5.15;1.05;;;15.30;1.00;;;;;;6218937;28;20050;-81
2023/10/14 14:45:06;;;;;;;6.15;1.05;;;15.10;1.00;;;;;;6215034;28;20068;-85
2023/10/14 14:48:09;;;;;;;4.22;1.17;;;15.10;1.00;;;;;;6219859;28;20042;-82
2023/10/14 14:51:12;;;;;;;3.03;0.80;;;14.90;1.00;;;;;;6217425;28;20417;-81
2023/10/14 14:54:14;;;;;;;4.53;0.90;;;14.90;1.00;;;;;;6217824;28;20056;-82
2023/10/14 14:57:18;;;;;;;3.53;0.98;;;14.90;1.00;;;;;;6224060;28;20062;-82
2023/10/14 15:00:26;;;;;;;4.13;1.00;;;14.80;1.00;;;;;;6216534;28;20057;-81
2023/10/14 15:03:27;;;;;;;3.85;0.80;;;14.70;1.00;;;;;;6214286;28;20551;-83
2023/10/14 15:06:29;;;;;;;3.58;0.70;;;14.80;1.00;;;;;;6229822;28;20080;-83
2023/10/14 15:09:31;;;;;;;6.18;0.90;;;14.60;1.00;;;;;;6221986;28;20049;-83
2023/10/14 15:12:34;;;;;;;4.22;1.17;;;14.60;1.00;;;;;;6220115;28;20061;-84
2023/10/14 15:15:36;;;;;;;4.07;0.93;;;14.40;1.00;;;;;;6222263;28;20054;-84
2023/10/14 15:18:40;;;;;;;3.33;1.00;;;14.40;1.00;;;;;;6214109;28;20062;-81
2023/10/14 15:21:42;;;;;;;3.78;1.13;;;14.30;1.00;;;;;;6229917;28;20066;-82
2023/10/14 15:24:43;;;;;;;3.53;0.90;;;14.30;1.00;;;;;;6222808;28;20064;-81
2023/10/14 15:27:45;;;;;;;4.05;0.70;;;14.20;1.00;;;;;;6219495;28;20042;-81
2023/10/14 15:30:46;;;;;;;6.15;1.00;;;14.10;1.00;;;;;;6221887;28;20053;-83
2023/10/14 15:33:48;;;;;;;3.70;1.10;;;14.00;1.00;;;;;;6213244;28;20447;-81
2023/10/14 15:36:50;;;;;;;3.70;0.70;;;13.90;1.00;;;;;;6229086;28;20069;-81
2023/10/14 15:39:53;;;;;;;3.53;0.90;;;14.00;1.00;;;;;;6220995;28;20053;-81
2023/10/14 15:42:57;;;;;;;4.85;1.10;;;14.10;1.00;;;;;;6219206;28;20100;-81
2023/10/14 15:46:01;;;;;;;4.68;1.00;;;14.20;1.00;;;;;;6220295;28;20058;-80
2023/10/14 15:49:03;;;;;;;4.45;1.02;;;14.20;1.00;;;;;;6221444;28;20057;-81
2023/10/14 15:52:05;;;;;;;4.22;0.90;;;14.10;1.00;;;;;;6220917;28;20485;-82
2023/10/14 15:55:08;;;;;;;5.90;1.20;;;14.10;1.00;;;;;;6220914;28;20056;-82
2023/10/14 15:58:10;;;;;;;4.07;0.90;;;14.00;1.00;;;;;;6216943;28;20054;-81
2023/10/14 16:01:12;;;;;;;3.70;0.80;;;13.90;1.00;;;;;;6222472;28;20442;-81
2023/10/14 16:04:13;;;;;;;4.28;0.90;;;13.80;1.00;;;;;;6220730;28;20108;-80
2023/10/14 16:07:15;;;;;;;5.32;1.00;;;13.70;1.00;;;;;;6221178;28;20069;-80
2023/10/14 16:10:17;;;;;;;4.28;1.00;;;13.60;1.00;;;;;;6221847;28;20060;-81
2023/10/14 16:13:19;;;;;;;6.80;1.48;;;13.40;1.00;;;;;;6217779;28;20128;-81
2023/10/14 16:16:21;;;;;;;5.10;1.50;;;13.40;1.00;;;;;;6222024;28;20057;-81
2023/10/14 16:19:23;;;;;;;5.90;1.67;;;13.40;1.00;;;;;;6220310;28;20141;-81
2023/10/14 16:22:25;;;;;;;5.30;1.70;;;13.30;1.00;;;;;;6220886;28;20517;-82